Time;durP1;ratioP1;P1;durP2;ratioP2;P2;SDS_P1;SDS_P2;PMS_P1;PMS_P2;Temp;Humidity;BMP_temperature;BMP_pressure;BME280_temperature;BME280_humidity;BME280_pressure;Samples;Min_cycle;Max_cycle;Signal;HPM_P1;HPM_P2
2022/03/08 00:00:29;;;;;;;28.25;19.25;;;;;;;-4.94;70.49;93242.09;2100923;28;20043;-80
2022/03/08 00:01:30;;;;;;;29.00;19.33;;;;;;;-4.96;70.66;93239.03;2111743;27;20081;-81
2022/03/08 00:02:31;;;;;;;30.02;18.95;;;;;;;-4.93;69.96;93241.00;2112165;28;20096;-81
2022/03/08 00:03:32;;;;;;;28.33;19.25;;;;;;;-5.06;72.89;93248.72;2114838;27;20574;-81
2022/03/08 00:04:33;;;;;;;28.27;19.95;;;;;;;-5.14;74.33;93246.91;2112518;27;20559;-82
2022/03/08 00:05:34;;;;;;;25.98;18.90;;;;;;;-5.18;72.74;93235.63;2114768;27;20367;-83
2022/03/08 00:06:35;;;;;;;30.00;20.30;;;;;;;-5.18;72.55;93237.44;2112095;28;20024;-81
2022/03/08 00:07:36;;;;;;;29.40;20.48;;;;;;;-5.05;71.74;93239.06;2109469;28;20058;-82
2022/03/08 00:08:37;;;;;;;28.67;20.10;;;;;;;-5.09;71.41;93244.16;2112363;27;20041;-81
2022/03/08 00:09:38;;;;;;;28.02;19.63;;;;;;;-5.16;74.86;93237.91;2120551;27;20490;-81
2022/03/08 00:10:39;;;;;;;29.30;19.33;;;;;;;-5.26;73.37;93238.28;2110721;28;20028;-82
2022/03/08 00:11:46;;;;;;;29.50;19.65;;;;;;;-5.34;72.83;93234.63;2111145;28;20036;-82
2022/03/08 00:12:48;;;;;;;28.08;19.17;;;;;;;-5.35;74.97;93240.91;2114131;27;20019;-83
2022/03/08 00:13:51;;;;;;;27.75;19.98;;;;;;;-5.34;73.31;93242.44;2114413;28;20181;-81
2022/03/08 00:14:52;;;;;;;31.13;20.40;;;;;;;-5.30;73.56;93234.75;2114171;28;20054;-81
2022/03/08 00:15:53;;;;;;;27.17;19.15;;;;;;;-5.34;73.74;93237.97;2104317;28;20020;-80
2022/03/08 00:16:55;;;;;;;28.52;20.60;;;;;;;-5.08;72.66;93242.31;2101200;28;20047;-82
2022/03/08 00:17:56;;;;;;;28.30;19.80;;;;;;;-5.20;73.02;93240.38;2113138;27;20030;-81
2022/03/08 00:18:57;;;;;;;28.95;20.60;;;;;;;-5.35;74.11;93240.91;2111033;28;20015;-82
2022/03/08 00:19:58;;;;;;;29.05;19.88;;;;;;;-5.50;74.62;93241.41;2096514;28;20095;-81
2022/03/08 00:21:00;;;;;;;28.52;19.17;;;;;;;-5.59;75.79;93237.00;2097403;28;20029;-83
2022/03/08 00:22:00;;;;;;;28.63;19.92;;;;;;;-5.58;77.35;93235.91;2104375;28;20465;-81
2022/03/08 00:23:03;;;;;;;29.13;19.92;;;;;;;-5.57;77.19;93232.25;2109784;28;20024;-81
2022/03/08 00:24:04;;;;;;;27.88;19.95;;;;;;;-5.57;76.42;93237.47;2109420;28;20391;-82
2022/03/08 00:25:07;;;;;;;27.35;19.35;;;;;;;-5.57;77.04;93240.06;2098412;28;20116;-81
2022/03/08 00:26:09;;;;;;;29.35;19.35;;;;;;;-5.65;76.83;93243.47;2096769;28;20114;-81
2022/03/08 00:27:10;;;;;;;27.60;19.38;;;;;;;-5.60;75.92;93242.53;2097877;28;20028;-82
2022/03/08 00:28:11;;;;;;;27.25;18.38;;;;;;;-5.61;76.35;93243.59;2094799;28;20031;-83
2022/03/08 00:29:12;;;;;;;30.50;19.85;;;;;;;-5.68;77.60;93238.09;2100291;28;20043;-81
2022/03/08 00:30:19;;;;;;;31.30;20.52;;;;;;;-5.80;78.83;93238.72;2098940;28;20326;-81
2022/03/08 00:31:20;;;;;;;28.10;18.90;;;;;;;-5.57;77.68;93234.84;2098114;28;20097;-83
2022/03/08 00:32:21;;;;;;;25.95;18.98;;;;;;;-5.91;76.83;93240.16;2107400;28;20024;-80
2022/03/08 00:33:23;;;;;;;25.92;18.63;;;;;;;-5.87;79.12;93235.84;2103743;28;20043;-82
2022/03/08 00:34:24;;;;;;;29.20;20.17;;;;;;;-5.65;76.85;93235.66;2101861;28;20750;-82
2022/03/08 00:35:25;;;;;;;29.88;20.38;;;;;;;-5.58;75.69;93237.75;2103034;28;20789;-82
2022/03/08 00:36:28;;;;;;;30.20;19.60;;;;;;;-5.72;77.16;93237.94;2099665;28;20120;-81
2022/03/08 00:37:29;;;;;;;29.42;19.52;;;;;;;-5.80;77.60;93243.94;2107165;28;20035;-82
2022/03/08 00:38:30;;;;;;;26.33;18.98;;;;;;;-5.82;77.58;93241.66;2114031;27;20479;-81
2022/03/08 00:39:31;;;;;;;27.55;19.08;;;;;;;-5.85;77.98;93238.91;2107309;28;20019;-83
2022/03/08 00:40:32;;;;;;;26.98;18.73;;;;;;;-5.89;78.32;93240.59;2105005;28;20051;-81
2022/03/08 00:41:33;;;;;;;26.90;19.85;;;;;;;-5.87;77.90;93234.00;2113002;28;20110;-82
2022/03/08 00:42:34;;;;;;;27.73;19.05;;;;;;;-5.79;77.95;93234.28;2112303;28;20488;-82
2022/03/08 00:43:35;;;;;;;29.80;20.52;;;;;;;-5.89;77.97;93240.59;2105345;28;20015;-81
2022/03/08 00:44:36;;;;;;;28.10;18.98;;;;;;;-5.92;78.31;93231.59;2099520;28;20024;-80
2022/03/08 00:45:37;;;;;;;31.02;20.13;;;;;;;-5.96;80.09;93237.75;2097183;28;20028;-81
2022/03/08 00:46:38;;;;;;;29.35;19.52;;;;;;;-6.07;80.88;93236.53;2105537;28;20061;-81
2022/03/08 00:47:40;;;;;;;29.08;19.98;;;;;;;-6.11;82.58;93244.94;2113115;28;20441;-81
2022/03/08 00:48:42;;;;;;;30.48;19.98;;;;;;;-6.15;81.97;93241.41;2106212;28;20027;-81
2022/03/08 00:49:43;;;;;;;27.13;18.92;;;;;;;-6.02;81.20;93236.34;2105954;28;20026;-82
2022/03/08 00:50:44;;;;;;;27.15;19.23;;;;;;;-5.99;80.22;93236.50;2106664;28;20042;-80
2022/03/08 00:51:45;;;;;;;29.95;19.48;;;;;;;-6.04;80.36;93241.13;2096244;28;20408;-82
2022/03/08 00:52:49;;;;;;;29.20;19.77;;;;;;;-6.13;82.08;93236.69;2111548;28;20031;-82
2022/03/08 00:53:51;;;;;;;27.45;19.13;;;;;;;-6.07;84.25;93236.53;2112020;28;20043;-80
2022/03/08 00:54:52;;;;;;;28.48;19.77;;;;;;;-6.10;82.53;93236.09;2102632;28;20026;-82
2022/03/08 00:55:53;;;;;;;27.95;19.27;;;;;;;-5.79;80.31;93234.28;2105692;28;20365;-81
2022/03/08 00:56:54;;;;;;;29.90;20.35;;;;;;;-6.15;82.94;93240.66;2097687;28;20013;-82
2022/03/08 00:57:55;;;;;;;27.63;18.67;;;;;;;-6.20;81.25;93233.78;2106412;28;20016;-82
2022/03/08 00:58:56;;;;;;;27.85;18.88;;;;;;;-6.25;82.56;93231.34;2103595;28;20024;-80
2022/03/08 00:59:57;;;;;;;29.02;19.88;;;;;;;-6.23;82.09;93242.22;2105199;28;20027;-81
2022/03/08 01:00:58;;;;;;;29.80;19.75;;;;;;;-6.32;83.40;93236.25;2099686;28;20814;-80
2022/03/08 01:01:59;;;;;;;26.48;19.10;;;;;;;-6.27;84.39;93235.34;2112391;27;20072;-82
2022/03/08 01:03:00;;;;;;;29.00;19.30;;;;;;;-6.24;86.33;93248.47;2103155;28;20022;-80
2022/03/08 01:04:02;;;;;;;27.00;18.52;;;;;;;-6.35;85.21;93232.41;2102052;28;20012;-81
2022/03/08 01:05:03;;;;;;;26.38;18.85;;;;;;;-6.24;82.35;93222.47;2108757;28;20081;-82
2022/03/08 01:06:04;;;;;;;27.88;20.00;;;;;;;-6.32;83.66;93231.06;2110596;28;20031;-80
2022/03/08 01:07:07;;;;;;;24.88;19.25;;;;;;;-6.42;84.08;93229.50;2106095;28;20086;-81
2022/03/08 01:08:08;;;;;;;27.95;19.73;;;;;;;-6.25;83.62;93228.72;2096040;28;20140;-82
2022/03/08 01:09:10;;;;;;;29.63;19.48;;;;;;;-6.11;81.60;93225.97;2096592;28;20352;-82
2022/03/08 01:10:17;;;;;;;27.23;19.17;;;;;;;-6.34;81.82;93228.75;2100839;28;20521;-81
2022/03/08 01:11:18;;;;;;;26.45;18.45;;;;;;;-6.35;82.61;93231.66;2107606;27;20016;-81
2022/03/08 01:12:19;;;;;;;26.23;17.75;;;;;;;-6.38;82.59;93234.88;2109195;28;20495;-82
2022/03/08 01:13:20;;;;;;;29.42;19.00;;;;;;;-6.24;82.02;93230.25;2109381;28;20475;-81
2022/03/08 01:14:21;;;;;;;27.98;19.15;;;;;;;-6.36;82.26;93235.34;2110839;28;20808;-81
2022/03/08 01:15:24;;;;;;;27.58;18.70;;;;;;;-6.48;83.58;93235.94;2109573;28;20023;-82
2022/03/08 01:16:25;;;;;;;27.00;19.58;;;;;;;-6.37;83.37;93228.59;2111269;27;20491;-82
2022/03/08 01:17:26;;;;;;;27.27;19.30;;;;;;;-6.46;82.37;93239.00;2110947;27;20476;-83
2022/03/08 01:18:27;;;;;;;27.55;19.38;;;;;;;-6.56;83.52;93233.34;2116375;27;20027;-81
2022/03/08 01:19:28;;;;;;;28.00;18.98;;;;;;;-6.67;84.45;93243.25;2119396;27;20020;-81
2022/03/08 01:20:29;;;;;;;26.67;18.55;;;;;;;-6.55;83.48;93235.63;2113602;28;20016;-81
2022/03/08 01:21:30;;;;;;;26.92;18.80;;;;;;;-6.53;82.44;93228.31;2105612;27;20989;-81
2022/03/08 01:22:32;;;;;;;28.60;19.02;;;;;;;-6.60;83.24;93231.34;2110125;28;20015;-82
2022/03/08 01:23:33;;;;;;;27.25;18.95;;;;;;;-6.64;83.39;93235.63;2113512;28;20110;-80
2022/03/08 01:24:34;;;;;;;27.25;18.65;;;;;;;-6.76;84.08;93237.28;2108285;28;20097;-81
2022/03/08 01:25:37;;;;;;;29.45;18.80;;;;;;;-6.69;83.85;93227.97;2103111;28;20130;-81
2022/03/08 01:26:37;;;;;;;28.40;18.77;;;;;;;-6.73;85.28;93227.06;2105917;28;20403;-82
2022/03/08 01:27:39;;;;;;;25.52;18.08;;;;;;;-6.77;85.99;93230.56;2118232;27;20026;-82
2022/03/08 01:28:40;;;;;;;29.45;19.10;;;;;;;-6.80;85.20;93236.34;2109295;28;20146;-80
2022/03/08 01:29:41;;;;;;;31.08;18.40;;;;;;;-6.81;84.81;93240.78;2107450;28;20090;-80
2022/03/08 01:30:42;;;;;;;30.27;20.80;;;;;;;-6.83;85.54;93229.19;2111754;28;20019;-81
2022/03/08 01:31:43;;;;;;;28.58;19.98;;;;;;;-6.95;86.11;93229.78;2105328;28;20016;-81
2022/03/08 01:32:44;;;;;;;30.83;19.35;;;;;;;-6.93;85.71;93227.66;2105248;28;20560;-82
2022/03/08 01:33:49;;;;;;;27.02;18.73;;;;;;;-6.82;86.09;93223.69;2105142;28;20762;-80
2022/03/08 01:34:50;;;;;;;27.10;17.85;;;;;;;-6.80;84.88;93228.56;2110789;28;20085;-80
2022/03/08 01:35:51;;;;;;;28.95;18.90;;;;;;;-6.83;85.47;93224.00;2104635;28;20039;-81
2022/03/08 01:36:54;;;;;;;30.63;19.75;;;;;;;-6.83;86.64;93237.75;2110090;28;20463;-81
2022/03/08 01:37:55;;;;;;;30.67;19.15;;;;;;;-6.89;86.73;93226.75;2104091;27;20027;-80
2022/03/08 01:38:56;;;;;;;29.38;19.77;;;;;;;-6.95;86.87;93227.94;2103903;28;20345;-80
2022/03/08 01:39:57;;;;;;;28.85;19.15;;;;;;;-6.91;86.99;93233.31;2104891;28;20066;-82
2022/03/08 01:40:58;;;;;;;30.17;19.85;;;;;;;-7.04;85.97;93237.56;2111352;28;20098;-81
2022/03/08 01:42:07;;;;;;;29.30;18.77;;;;;;;-7.04;87.44;93232.34;2118023;27;20854;-82
2022/03/08 01:43:08;;;;;;;27.02;19.05;;;;;;;-7.02;86.58;93229.44;2121785;27;20023;-80
2022/03/08 01:44:09;;;;;;;30.17;18.92;;;;;;;-6.94;86.37;93220.91;2113750;28;20047;-81
2022/03/08 01:45:10;;;;;;;27.02;18.88;;;;;;;-6.98;86.55;93225.97;2117821;27;20058;-81
2022/03/08 01:46:13;;;;;;;27.83;18.65;;;;;;;-7.02;87.03;93216.47;2107791;28;20024;-80
2022/03/08 01:47:16;;;;;;;28.95;18.42;;;;;;;-7.01;87.04;93220.59;2100446;28;20107;-80
2022/03/08 01:48:17;;;;;;;27.48;19.13;;;;;;;-6.94;86.13;93215.72;2104972;28;20024;-80
2022/03/08 01:49:18;;;;;;;30.13;18.63;;;;;;;-7.00;86.69;93214.34;2110740;28;20031;-81
2022/03/08 01:50:20;;;;;;;31.33;19.58;;;;;;;-6.99;86.22;93215.88;2113668;28;20011;-81
2022/03/08 01:51:22;;;;;;;29.27;19.73;;;;;;;-6.94;86.11;93213.13;2102902;28;20060;-81
2022/03/08 01:52:25;;;;;;;31.55;19.42;;;;;;;-6.95;85.63;93214.19;2111313;27;20024;-80
2022/03/08 01:53:26;;;;;;;31.05;18.52;;;;;;;-7.02;85.96;93219.06;2111733;27;20499;-80
2022/03/08 01:54:27;;;;;;;29.83;18.92;;;;;;;-7.11;86.97;93217.22;2102921;28;20029;-81
2022/03/08 01:55:28;;;;;;;28.38;18.30;;;;;;;-6.95;87.28;93216.78;2113843;28;20027;-81
2022/03/08 01:56:29;;;;;;;28.40;18.83;;;;;;;-7.00;84.91;93212.50;2110958;28;20063;-81
2022/03/08 01:57:30;;;;;;;29.88;19.23;;;;;;;-7.05;86.50;93217.84;2108821;28;20138;-82
2022/03/08 01:58:31;;;;;;;28.17;18.95;;;;;;;-7.08;86.07;93212.50;2106319;28;20055;-82
2022/03/08 01:59:32;;;;;;;32.83;20.20;;;;;;;-7.17;89.46;93217.66;2098947;28;20016;-80
2022/03/08 02:00:33;;;;;;;29.98;18.98;;;;;;;-7.35;88.12;93212.41;2109198;28;20447;-79
2022/03/08 02:01:34;;;;;;;29.27;19.05;;;;;;;-7.01;86.84;93216.19;2124319;27;20042;-80
2022/03/08 02:02:35;;;;;;;26.73;18.55;;;;;;;-7.27;88.54;93212.75;2124004;27;20018;-81
2022/03/08 02:03:36;;;;;;;27.95;18.40;;;;;;;-7.45;88.28;93214.53;2117286;27;20409;-82
2022/03/08 02:04:39;;;;;;;28.98;19.33;;;;;;;-7.29;89.45;93213.03;2113835;27;20019;-81
2022/03/08 02:05:40;;;;;;;29.02;18.45;;;;;;;-7.26;89.16;93214.28;2111795;28;20016;-81
2022/03/08 02:06:44;;;;;;;29.83;19.02;;;;;;;-7.36;89.28;93207.53;2105002;28;20299;-82
2022/03/08 02:07:46;;;;;;;29.20;19.40;;;;;;;-7.44;90.47;93208.28;2108067;28;20031;-80
2022/03/08 02:08:47;;;;;;;29.63;19.30;;;;;;;-7.40;90.41;93209.97;2118733;27;20130;-82
2022/03/08 02:11:49;;;;;;;;;;;;;;;-7.47;88.97;93201.84;2144526;27;20109;-81
2022/03/08 02:12:50;;;;;;;29.70;16.60;;;;;;;-7.46;89.72;93202.59;2123444;27;19911;-79
2022/03/08 02:13:51;;;;;;;29.23;17.98;;;;;;;-7.50;90.66;93201.69;2122443;27;20028;-80
2022/03/08 02:14:52;;;;;;;28.65;17.60;;;;;;;-7.61;91.41;93204.56;2123421;27;20449;-82
2022/03/08 02:15:54;;;;;;;29.73;18.77;;;;;;;-7.65;90.85;93195.81;2114563;28;20016;-80
2022/03/08 02:16:55;;;;;;;27.00;18.35;;;;;;;-7.52;90.17;93203.81;2108355;27;20636;-82
2022/03/08 02:17:57;;;;;;;31.60;20.20;;;;;;;-7.70;91.49;93197.81;2112720;27;20031;-81
2022/03/08 02:18:58;;;;;;;28.75;19.30;;;;;;;-7.61;91.76;93198.59;2114640;28;20641;-81
2022/03/08 02:19:59;;;;;;;27.80;17.83;;;;;;;-7.55;91.77;93194.03;2104002;28;20028;-79
2022/03/08 02:21:07;;;;;;;33.13;19.15;;;;;;;-7.56;89.70;93190.66;2113147;27;20059;-82
2022/03/08 02:22:08;;;;;;;27.83;19.08;;;;;;;-7.61;92.39;93196.00;2124715;27;20034;-80
2022/03/08 02:23:10;;;;;;;27.63;18.95;;;;;;;-7.68;91.20;93198.25;2112436;28;20185;-81
2022/03/08 02:24:11;;;;;;;27.40;19.08;;;;;;;-7.65;89.65;93202.84;2114240;27;20449;-80
2022/03/08 02:25:20;;;;;;;32.83;20.30;;;;;;;-7.49;91.08;93206.59;2105692;28;20028;-80
2022/03/08 02:26:22;;;;;;;34.67;19.27;;;;;;;-7.67;91.51;93199.81;2110452;28;20063;-80
2022/03/08 02:27:22;;;;;;;35.45;19.83;;;;;;;-7.64;92.86;93199.19;2106096;28;20031;-82
2022/03/08 02:28:24;;;;;;;28.67;20.25;;;;;;;-7.53;92.70;93190.06;2111933;28;20528;-82
2022/03/08 02:29:25;;;;;;;30.85;19.60;;;;;;;-7.66;92.36;93190.94;2121122;27;20106;-80
2022/03/08 02:30:26;;;;;;;27.63;18.52;;;;;;;-7.62;92.25;93192.66;2114570;28;20075;-80
2022/03/08 02:31:27;;;;;;;26.23;18.73;;;;;;;-7.63;91.54;93188.53;2112785;27;20473;-80
2022/03/08 02:32:28;;;;;;;31.33;19.90;;;;;;;-7.67;91.28;93192.78;2112281;28;20051;-79
2022/03/08 02:33:29;;;;;;;31.05;19.48;;;;;;;-7.58;91.58;93192.06;2099413;28;20028;-80
2022/03/08 02:34:30;;;;;;;27.25;19.17;;;;;;;-7.52;91.91;93191.59;2106219;28;20054;-81
2022/03/08 02:35:32;;;;;;;30.20;19.58;;;;;;;-7.43;90.79;93191.63;2110228;28;20127;-81
2022/03/08 02:36:33;;;;;;;30.77;19.98;;;;;;;-7.41;90.56;93192.09;2114885;28;20057;-81
2022/03/08 02:37:42;;;;;;;29.63;18.73;;;;;;;-7.57;89.85;93185.78;2104620;28;20458;-79
2022/03/08 02:38:43;;;;;;;27.27;18.92;;;;;;;-7.51;91.00;93189.78;2102664;28;20016;-81
2022/03/08 02:39:44;;;;;;;29.23;19.40;;;;;;;-7.61;91.65;93186.38;2099787;28;20790;-80
2022/03/08 02:40:45;;;;;;;30.73;19.60;;;;;;;-7.62;92.20;93179.66;2110298;28;20020;-79
2022/03/08 02:41:46;;;;;;;27.70;18.88;;;;;;;-7.51;91.43;93187.16;2103685;28;21053;-82
2022/03/08 02:42:47;;;;;;;28.10;18.05;;;;;;;-7.38;90.55;93191.47;2109145;28;20081;-81
2022/03/08 02:43:47;;;;;;;31.75;19.67;;;;;;;-7.40;89.59;93176.22;2097501;28;20020;-81
2022/03/08 02:44:48;;;;;;;26.35;17.80;;;;;;;-7.62;90.45;93177.06;2096413;28;20107;-81
2022/03/08 02:45:51;;;;;;;29.80;18.10;;;;;;;-7.44;90.49;93179.72;2114399;28;20102;-82
2022/03/08 02:46:52;;;;;;;29.55;19.17;;;;;;;-7.53;91.09;93174.50;2112222;28;20141;-80
2022/03/08 02:47:54;;;;;;;27.92;17.70;;;;;;;-7.38;90.52;93191.47;2120228;27;20043;-81
2022/03/08 02:48:56;;;;;;;28.02;18.17;;;;;;;-7.44;90.34;93187.50;2123102;27;20098;-81
2022/03/08 02:49:57;;;;;;;25.27;17.42;;;;;;;-7.52;91.26;93185.66;2120827;27;20019;-81
2022/03/08 02:50:58;;;;;;;28.25;18.17;;;;;;;-7.62;91.51;93192.66;2112538;28;20529;-80
2022/03/08 02:51:59;;;;;;;27.98;17.92;;;;;;;-7.53;91.74;93187.47;2105041;28;20016;-79
2022/03/08 02:53:01;;;;;;;25.60;18.45;;;;;;;-7.56;91.07;93192.50;2108041;28;20028;-80
2022/03/08 02:54:03;;;;;;;28.95;18.92;;;;;;;-7.63;89.88;93195.56;2114583;28;20102;-79
2022/03/08 02:55:05;;;;;;;26.75;18.27;;;;;;;-7.64;90.83;93192.19;2103681;28;20024;-82
2022/03/08 02:56:06;;;;;;;25.15;17.88;;;;;;;-7.76;88.74;93194.59;2097958;28;20450;-80
2022/03/08 02:57:07;;;;;;;28.17;17.83;;;;;;;-7.75;89.93;93188.31;2103592;28;20081;-81
2022/03/08 02:58:08;;;;;;;25.08;17.58;;;;;;;-7.80;90.57;93190.28;2124687;27;20056;-81
2022/03/08 02:59:09;;;;;;;26.95;17.70;;;;;;;-7.82;91.07;93198.34;2114298;28;20028;-80
2022/03/08 03:00:13;;;;;;;27.48;16.73;;;;;;;-7.71;91.35;93194.44;2094894;28;20591;-80
2022/03/08 03:01:14;;;;;;;30.05;18.13;;;;;;;-7.73;91.31;93188.78;2111456;27;20031;-81
2022/03/08 03:02:15;;;;;;;27.25;17.98;;;;;;;-7.68;90.33;93196.44;2120482;27;20134;-80
2022/03/08 03:03:16;;;;;;;26.98;17.70;;;;;;;-7.74;90.54;93199.47;2112582;27;20024;-79
2022/03/08 03:04:17;;;;;;;24.83;17.60;;;;;;;-7.72;90.92;93189.56;2117048;28;20019;-79
2022/03/08 03:05:18;;;;;;;26.50;18.33;;;;;;;-7.76;92.63;93196.41;2115205;28;20477;-79
2022/03/08 03:06:21;;;;;;;29.25;18.25;;;;;;;-7.74;90.91;93195.03;2096702;28;20029;-80
2022/03/08 03:07:22;;;;;;;25.25;17.42;;;;;;;-7.87;90.81;93188.13;2095413;28;20044;-80
2022/03/08 03:08:23;;;;;;;28.75;17.45;;;;;;;-7.79;90.30;93192.56;2097756;28;20037;-79
2022/03/08 03:09:24;;;;;;;25.95;17.25;;;;;;;-7.80;91.52;93191.06;2105625;28;20016;-79
2022/03/08 03:10:26;;;;;;;28.63;18.25;;;;;;;-7.95;91.60;93186.25;2106097;27;20016;-81
2022/03/08 03:11:27;;;;;;;26.77;17.48;;;;;;;-7.94;91.31;93185.19;2105017;28;20517;-80
2022/03/08 03:12:27;;;;;;;28.15;17.85;;;;;;;-7.95;90.10;93181.06;2109084;28;20066;-82
2022/03/08 03:13:28;;;;;;;28.83;18.30;;;;;;;-7.87;90.61;93175.13;2105708;28;20028;-79
2022/03/08 03:14:29;;;;;;;25.83;16.95;;;;;;;-7.97;89.88;93175.41;2116417;28;20049;-81
2022/03/08 03:15:30;;;;;;;26.95;17.48;;;;;;;-7.93;90.18;93171.94;2116358;28;20024;-82
2022/03/08 03:16:31;;;;;;;24.50;16.88;;;;;;;-7.87;89.97;93175.13;2104539;28;20047;-80
2022/03/08 03:17:33;;;;;;;26.17;17.17;;;;;;;-7.86;90.55;93180.06;2107675;28;20433;-79
2022/03/08 03:18:33;;;;;;;25.55;17.58;;;;;;;-8.00;90.80;93173.41;2104733;28;20434;-81
2022/03/08 03:19:36;;;;;;;24.85;17.85;;;;;;;-7.98;91.35;93173.88;2105551;28;20449;-80
2022/03/08 03:20:37;;;;;;;28.30;18.08;;;;;;;-7.96;91.28;93174.34;2105826;28;20059;-80
2022/03/08 03:21:38;;;;;;;25.25;17.02;;;;;;;-8.05;91.97;93171.72;2103307;28;20016;-80
2022/03/08 03:22:40;;;;;;;25.52;17.10;;;;;;;-8.12;91.64;93176.53;2094881;28;20020;-81
2022/03/08 03:23:41;;;;;;;26.02;17.25;;;;;;;-8.09;91.32;93178.56;2099676;28;20032;-80
2022/03/08 03:24:42;;;;;;;24.52;16.75;;;;;;;-7.98;90.63;93173.88;2089313;28;20393;-80
2022/03/08 03:25:43;;;;;;;28.10;17.20;;;;;;;-7.96;90.24;93175.09;2100526;28;20458;-80
2022/03/08 03:26:43;;;;;;;23.92;16.38;;;;;;;-8.05;91.24;93174.31;2093584;28;20021;-81
2022/03/08 03:27:45;;;;;;;26.67;17.00;;;;;;;-8.05;90.84;93176.13;2093169;28;20073;-81
2022/03/08 03:28:46;;;;;;;24.35;16.35;;;;;;;-8.21;90.99;93181.72;2089537;28;20961;-80
2022/03/08 03:29:47;;;;;;;24.15;16.67;;;;;;;-8.20;92.50;93178.06;2106609;28;20426;-80
2022/03/08 03:30:48;;;;;;;25.40;16.95;;;;;;;-8.15;90.26;93172.72;2106976;28;20095;-81
2022/03/08 03:31:49;;;;;;;24.88;17.15;;;;;;;-8.19;90.80;93169.19;2091778;28;20555;-81
2022/03/08 03:32:50;;;;;;;25.73;17.25;;;;;;;-8.22;91.39;93163.84;2090202;28;20053;-81
2022/03/08 03:33:51;;;;;;;23.23;15.35;;;;;;;-8.18;91.50;93165.53;2097133;28;20439;-81
2022/03/08 03:34:52;;;;;;;24.10;16.30;;;;;;;-8.25;91.55;93162.63;2097815;28;20039;-81
2022/03/08 03:35:53;;;;;;;29.48;18.13;;;;;;;-8.19;91.37;93166.59;2103707;28;20113;-82
2022/03/08 03:36:54;;;;;;;22.92;16.02;;;;;;;-8.12;90.62;93159.19;2114469;28;20019;-80
2022/03/08 03:37:55;;;;;;;26.90;17.35;;;;;;;-8.01;88.71;93156.31;2097642;28;20439;-81
2022/03/08 03:38:56;;;;;;;25.63;16.88;;;;;;;-8.20;89.76;93152.13;2091818;28;20013;-81
2022/03/08 03:39:57;;;;;;;24.80;16.90;;;;;;;-8.17;89.91;93156.69;2095722;28;20133;-79
2022/03/08 03:40:58;;;;;;;26.50;16.90;;;;;;;-8.23;89.60;93157.91;2097392;28;20486;-81
2022/03/08 03:41:59;;;;;;;25.42;15.93;;;;;;;-8.23;89.63;93157.91;2097361;28;20457;-80
2022/03/08 03:43:00;;;;;;;28.90;16.67;;;;;;;-8.34;90.34;93156.59;2104274;28;20418;-82
2022/03/08 03:44:01;;;;;;;24.60;16.73;;;;;;;-8.29;92.49;93150.56;2098278;28;20454;-80
2022/03/08 03:45:03;;;;;;;26.92;17.17;;;;;;;-8.33;92.16;93152.22;2097790;28;20065;-79
2022/03/08 03:46:05;;;;;;;25.90;15.85;;;;;;;-8.33;91.39;93152.22;2100078;28;20020;-81
2022/03/08 03:47:08;;;;;;;26.15;15.80;;;;;;;-8.47;90.58;93162.66;2089658;28;20443;-81
2022/03/08 03:48:09;;;;;;;22.33;15.82;;;;;;;-8.07;90.53;93147.91;2097445;28;20455;-81
2022/03/08 03:49:10;;;;;;;24.50;16.65;;;;;;;-8.20;93.09;93152.13;2091659;28;20453;-81
2022/03/08 03:50:11;;;;;;;23.70;16.65;;;;;;;-8.15;92.47;93148.63;2106112;28;20020;-81
2022/03/08 03:51:12;;;;;;;24.20;16.55;;;;;;;-8.26;92.52;93148.13;2103994;28;20027;-80
2022/03/08 03:52:13;;;;;;;23.55;16.08;;;;;;;-8.27;91.15;93148.41;2097874;28;20447;-81
2022/03/08 03:53:14;;;;;;;25.70;16.13;;;;;;;-8.45;91.42;93142.41;2097735;28;20135;-81
2022/03/08 03:54:15;;;;;;;24.33;16.42;;;;;;;-8.38;91.62;93140.16;2106008;28;20036;-81
2022/03/08 03:55:16;;;;;;;27.30;16.33;;;;;;;-8.37;91.39;93139.09;2106462;28;20453;-81
2022/03/08 03:56:17;;;;;;;24.38;16.45;;;;;;;-8.40;92.27;93139.69;2093891;28;20116;-80
2022/03/08 03:57:18;;;;;;;24.02;15.82;;;;;;;-8.28;91.86;93134.69;2088574;28;20473;-79
2022/03/08 03:58:19;;;;;;;25.50;16.02;;;;;;;-8.27;90.79;93143.22;2091583;28;20435;-82
2022/03/08 03:59:20;;;;;;;24.95;16.13;;;;;;;-8.24;90.78;93138.22;2089644;28;20020;-82
2022/03/08 04:00:21;;;;;;;25.92;16.15;;;;;;;-8.52;91.32;93129.84;2090880;28;20522;-81
2022/03/08 04:01:22;;;;;;;25.13;16.52;;;;;;;-8.53;92.05;93132.75;2100989;28;20020;-80
2022/03/08 04:02:23;;;;;;;28.30;15.95;;;;;;;-8.48;93.35;93132.63;2099268;28;20954;-81
2022/03/08 04:03:24;;;;;;;22.92;15.45;;;;;;;-8.54;93.30;93126.81;2099965;28;20108;-80
2022/03/08 04:04:25;;;;;;;24.83;16.70;;;;;;;-8.66;93.03;93127.34;2091261;28;20028;-79
2022/03/08 04:05:26;;;;;;;24.25;16.35;;;;;;;-8.69;93.83;93129.75;2093205;28;20025;-79
2022/03/08 04:06:27;;;;;;;25.20;16.08;;;;;;;-8.60;93.11;93122.03;2112064;27;20024;-80
2022/03/08 04:07:38;;;;;;;25.92;16.40;;;;;;;-8.75;94.29;93121.34;2110093;28;20441;-79
2022/03/08 04:08:38;;;;;;;22.73;15.43;;;;;;;-8.52;92.96;93129.09;2098785;28;20525;-80
2022/03/08 04:09:39;;;;;;;25.38;16.00;;;;;;;-8.55;92.91;93129.72;2097459;28;20783;-80
2022/03/08 04:10:41;;;;;;;22.25;15.68;;;;;;;-8.65;92.71;93128.88;2105633;28;20063;-80
2022/03/08 04:11:42;;;;;;;21.70;15.77;;;;;;;-8.41;92.34;93125.22;2103160;28;20040;-79
2022/03/08 04:12:43;;;;;;;26.05;15.73;;;;;;;-8.43;93.10;93125.50;2099058;28;21003;-80
2022/03/08 04:13:44;;;;;;;24.95;16.15;;;;;;;-8.52;92.99;93127.25;2112293;28;20333;-81
2022/03/08 04:14:45;;;;;;;24.73;16.10;;;;;;;-8.43;92.46;93119.53;2104224;28;20547;-80
2022/03/08 04:15:46;;;;;;;23.55;16.17;;;;;;;-8.50;92.49;93124.41;2091322;28;20494;-82
2022/03/08 04:16:47;;;;;;;23.98;15.98;;;;;;;-8.65;94.05;93115.94;2093456;28;20024;-80
2022/03/08 04:17:48;;;;;;;27.20;15.98;;;;;;;-8.53;92.65;93110.19;2099811;28;20112;-79
2022/03/08 04:18:49;;;;;;;26.67;16.02;;;;;;;-8.77;94.30;93120.88;2096434;28;20032;-79
2022/03/08 04:19:50;;;;;;;25.25;15.40;;;;;;;-8.80;93.69;93115.53;2099693;28;20426;-81
2022/03/08 04:20:51;;;;;;;26.60;14.95;;;;;;;-8.70;93.49;93112.69;2096919;28;20524;-81
2022/03/08 04:21:52;;;;;;;22.58;15.25;;;;;;;-8.50;93.37;93112.19;2098298;28;20092;-80
2022/03/08 04:22:53;;;;;;;23.98;15.40;;;;;;;-8.69;93.21;93120.19;2097939;28;20016;-80
2022/03/08 04:23:54;;;;;;;24.70;16.75;;;;;;;-8.75;93.94;93121.34;2098641;28;20430;-80
2022/03/08 04:24:55;;;;;;;24.17;15.02;;;;;;;-8.71;93.81;93116.34;2107831;28;20023;-80
2022/03/08 04:25:56;;;;;;;25.05;15.93;;;;;;;-8.65;93.91;93118.53;2099641;28;20108;-80
2022/03/08 04:26:57;;;;;;;23.00;15.85;;;;;;;-8.71;94.04;93111.91;2099757;28;20538;-81
2022/03/08 04:28:02;;;;;;;23.90;15.60;;;;;;;-8.90;94.61;93111.34;2094972;28;20116;-81
2022/03/08 04:29:03;;;;;;;25.02;15.80;;;;;;;-8.76;94.09;93114.63;2105846;28;20016;-81
2022/03/08 04:30:05;;;;;;;24.55;15.93;;;;;;;-8.70;93.46;93118.63;2105864;28;20447;-81
2022/03/08 04:31:06;;;;;;;25.70;15.70;;;;;;;-8.70;93.63;93110.84;2090847;28;20493;-80
2022/03/08 04:32:08;;;;;;;29.83;17.38;;;;;;;-8.88;94.09;93111.81;2089905;28;20626;-81
2022/03/08 04:33:09;;;;;;;26.77;15.40;;;;;;;-8.73;94.23;93108.13;2093455;28;20177;-80
2022/03/08 04:34:10;;;;;;;25.45;15.93;;;;;;;-8.71;93.34;93106.75;2091095;28;20451;-80
2022/03/08 04:35:11;;;;;;;27.70;16.30;;;;;;;-8.74;93.31;93112.50;2090121;28;20051;-80
2022/03/08 04:36:12;;;;;;;25.65;15.75;;;;;;;-8.73;94.01;93114.06;2096829;28;20029;-82
2022/03/08 04:37:13;;;;;;;27.88;16.08;;;;;;;-8.92;94.80;93113.44;2105997;27;20802;-80
2022/03/08 04:38:14;;;;;;;23.95;16.15;;;;;;;-8.85;94.92;93107.88;2099146;28;20024;-79
2022/03/08 04:39:15;;;;;;;25.80;16.05;;;;;;;-8.57;95.25;93106.66;2107480;28;20039;-80
2022/03/08 04:40:16;;;;;;;24.80;16.05;;;;;;;-8.71;94.15;93104.16;2097684;28;20446;-80
2022/03/08 04:41:17;;;;;;;22.48;15.35;;;;;;;-8.75;95.52;93105.81;2100207;28;20077;-80
2022/03/08 04:42:18;;;;;;;24.23;15.68;;;;;;;-8.86;94.87;93104.53;2099512;28;21017;-81
2022/03/08 04:43:19;;;;;;;25.20;15.75;;;;;;;-8.73;94.36;93114.06;2098071;28;20046;-80
2022/03/08 04:44:20;;;;;;;26.98;16.17;;;;;;;-8.72;94.45;93100.03;2096086;28;20016;-82